createdAt,value
2022-11-01T00:04:56.314Z,95736.00
2022-11-01T00:09:59.042Z,95758.81
2022-11-01T00:15:01.745Z,95754.25
2022-11-01T00:20:04.515Z,95756.13
2022-11-01T00:25:07.183Z,95751.84
2022-11-01T00:30:11.079Z,95753.72
2022-11-01T00:35:13.783Z,95748.88
2022-11-01T00:40:23.314Z,95742.19
2022-11-01T00:45:26.522Z,95744.84
2022-11-01T00:50:29.223Z,95731.97
2022-11-01T00:55:31.923Z,95731.66
2022-11-01T01:00:34.644Z,95732.75
2022-11-01T01:05:37.301Z,95732.22
2022-11-01T01:10:40.481Z,95737.03
2022-11-01T01:15:43.199Z,95733.00
2022-11-01T01:20:45.919Z,95732.75
2022-11-01T01:25:48.613Z,95730.31
2022-11-01T01:30:51.308Z,95723.91
2022-11-01T01:35:53.991Z,95718.53
2022-11-01T01:41:21.238Z,95715.03
2022-11-01T01:46:23.940Z,95713.44
2022-11-01T01:51:26.727Z,95711.84
2022-11-01T01:56:29.445Z,95715.84
2022-11-01T02:01:33.602Z,95705.13
2022-11-01T02:06:36.552Z,95703.22
2022-11-01T02:11:39.237Z,95700.84
2022-11-01T02:16:41.876Z,95709.97
2022-11-01T02:21:44.588Z,95715.03
2022-11-01T02:26:47.162Z,95710.75
2022-11-01T02:31:49.824Z,95708.88
2022-11-01T02:36:52.574Z,95719.91
2022-11-01T02:41:55.277Z,95706.22
2022-11-01T02:47:03.761Z,95710.22
2022-11-01T02:52:06.499Z,95719.63
2022-11-01T02:57:09.131Z,95724.97
2022-11-01T03:02:11.800Z,95711.31
2022-11-01T03:07:14.423Z,95712.63
2022-11-01T03:12:17.205Z,95709.44
2022-11-01T03:17:19.779Z,95723.09
2022-11-01T03:22:22.381Z,95736.25
2022-11-01T03:27:25.044Z,95734.66
2022-11-01T03:32:27.740Z,95734.38
2022-11-01T03:37:30.452Z,95728.72
2022-11-01T03:42:33.118Z,95744.03
2022-11-01T03:47:35.842Z,95751.78
2022-11-01T03:52:38.597Z,95746.94
2022-11-01T03:57:42.835Z,95755.75
2022-11-01T04:02:45.529Z,95758.16
2022-11-01T04:07:48.268Z,95764.31
2022-11-01T04:12:50.995Z,95769.94
2022-11-01T04:18:11.207Z,95771.56
2022-11-01T04:23:13.814Z,95777.97
2022-11-01T04:28:16.492Z,95789.69
2022-11-01T04:33:19.338Z,95801.22
2022-11-01T04:38:21.974Z,95799.88
2022-11-01T04:43:25.067Z,95812.22
2022-11-01T04:48:28.539Z,95811.13
2022-11-01T04:53:31.600Z,95808.59
2022-11-01T04:58:39.973Z,95816.31
2022-11-01T05:03:46.299Z,95824.84
2022-11-01T05:08:49.853Z,95833.88
2022-11-01T05:13:52.949Z,95825.53
2022-11-01T05:18:56.026Z,95832.00
2022-11-01T05:23:59.139Z,95848.44
2022-11-01T05:29:08.848Z,95851.34
2022-11-01T05:34:16.921Z,95854.34
2022-11-01T05:39:20.117Z,95858.94
2022-11-01T05:44:23.320Z,95856.53
2022-11-01T05:49:26.499Z,95862.72
2022-11-01T05:54:29.638Z,95872.97
2022-11-01T05:59:32.860Z,95878.38
2022-11-01T06:04:35.970Z,95884.53
2022-11-01T06:09:39.391Z,95886.44
2022-11-01T06:14:42.589Z,95881.91
2022-11-01T06:19:45.771Z,95883.81
2022-11-01T06:24:48.951Z,95888.41
2022-11-01T06:29:52.127Z,95916.06
2022-11-01T06:35:07.318Z,95926.56
2022-11-01T06:40:13.162Z,95945.38
2022-11-01T06:45:16.653Z,95950.00
2022-11-01T06:50:19.855Z,95968.03
2022-11-01T06:55:23.347Z,95965.97
2022-11-01T07:00:26.502Z,95965.69
2022-11-01T07:05:32.852Z,95972.41
2022-11-01T07:10:39.233Z,95982.03
2022-11-01T07:15:42.312Z,95986.53
2022-11-01T07:25:49.583Z,96003.44
2022-11-01T07:30:52.713Z,96004.75
2022-11-01T07:35:55.782Z,96018.72
2022-11-01T07:40:58.848Z,96022.41
2022-11-01T07:46:04.216Z,96034.69
2022-11-01T07:51:07.679Z,96028.06
2022-11-01T07:56:10.838Z,96026.13
2022-11-01T08:01:14.713Z,96026.59
2022-11-01T08:06:18.230Z,96025.19
2022-11-01T08:11:21.477Z,96010.19
2022-11-01T08:16:24.846Z,96008.56
2022-11-01T08:21:28.010Z,96009.31
2022-11-01T08:26:31.544Z,96012.66
2022-11-01T08:31:34.738Z,96010.88
2022-11-01T08:36:37.951Z,96018.53
2022-11-01T08:41:41.152Z,96035.56
2022-11-01T08:46:44.282Z,96029.03
2022-11-01T08:51:47.474Z,96041.34
2022-11-01T08:56:50.624Z,96041.72
2022-11-01T09:01:53.923Z,96046.25
2022-11-01T09:06:57.096Z,96044.00
2022-11-01T09:12:00.217Z,96042.69
2022-11-01T09:17:03.303Z,96046.81
2022-11-01T09:22:06.415Z,96025.69
2022-11-01T09:27:09.929Z,96017.38
2022-11-01T09:32:13.564Z,96026.19
2022-11-01T09:37:16.753Z,96014.31
2022-11-01T09:42:20.674Z,96006.56
2022-11-01T09:47:23.880Z,96002.25
2022-11-01T09:52:27.048Z,96005.25
2022-11-01T09:57:30.282Z,96015.56
2022-11-01T10:02:33.493Z,96015.06
2022-11-01T10:07:37.377Z,96035.38
2022-11-01T10:12:40.558Z,96040.22
2022-11-01T10:17:47.090Z,96041.25
2022-11-01T10:22:54.171Z,96037.78
2022-11-01T10:27:57.386Z,96025.19
2022-11-01T10:33:08.394Z,96033.50
2022-11-01T10:38:24.968Z,96035.47
2022-11-01T10:43:31.352Z,96037.72
2022-11-01T10:48:40.306Z,96035.31
2022-11-01T10:53:43.388Z,96029.47
2022-11-01T10:58:46.747Z,96028.13
2022-11-01T11:03:50.210Z,96032.63
2022-11-01T11:08:53.298Z,96019.38
2022-11-01T11:13:56.454Z,96026.47
2022-11-01T11:18:59.624Z,96027.31
2022-11-01T11:24:02.790Z,96025.13
2022-11-01T11:29:05.977Z,96027.97
2022-11-01T11:34:09.200Z,96016.97
2022-11-01T11:39:12.436Z,96012.84
2022-11-01T11:44:17.216Z,96021.34
2022-11-01T11:49:20.441Z,96008.59
2022-11-01T11:54:23.660Z,96012.31
2022-11-01T11:59:28.511Z,96017.13
2022-11-01T12:04:32.047Z,96019.53
2022-11-01T12:09:35.644Z,96018.69
2022-11-01T12:14:39.027Z,96025.56
2022-11-01T12:19:42.339Z,96027.31
2022-11-01T12:24:49.983Z,96017.25
2022-11-01T12:29:53.301Z,96026.06
2022-11-01T12:34:56.511Z,96023.97
2022-11-01T12:39:59.700Z,96021.94
2022-11-01T12:45:02.798Z,96029.28
2022-11-01T12:50:05.918Z,96023.03
2022-11-01T12:55:09.080Z,96026.44
2022-11-01T13:00:32.447Z,96026.13
2022-11-01T13:05:35.629Z,96026.63
2022-11-01T13:10:39.172Z,96017.69
2022-11-01T13:15:42.355Z,96023.28
2022-11-01T13:20:45.695Z,96019.81
2022-11-01T13:25:48.957Z,96022.25
2022-11-01T13:30:52.588Z,96021.72
2022-11-01T13:35:55.835Z,96020.13
2022-11-01T13:40:59.038Z,96023.72
2022-11-01T13:46:02.251Z,96017.72
2022-11-01T13:51:05.484Z,96025.06
2022-11-01T13:56:08.824Z,96026.88
2022-11-01T14:01:12.169Z,96029.16
2022-11-01T14:06:15.563Z,96028.78
2022-11-01T14:11:21.942Z,96024.75
2022-11-01T14:16:25.162Z,96034.19
2022-11-01T14:21:28.645Z,96024.16
2022-11-01T14:26:31.744Z,96019.34
2022-11-01T14:31:35.163Z,96026.25
2022-11-01T14:36:50.188Z,96034.63
2022-11-01T14:41:56.238Z,96037.09
2022-11-01T14:47:00.474Z,96036.91
2022-11-01T14:52:03.626Z,96041.28
2022-11-01T14:57:06.749Z,96040.19
2022-11-01T15:02:10.014Z,96045.47
2022-11-01T15:07:13.109Z,96043.00
2022-11-01T15:12:16.213Z,96039.25
2022-11-01T15:17:19.259Z,96041.69
2022-11-01T15:22:22.494Z,96045.50
2022-11-01T15:27:25.096Z,96050.28
2022-11-01T15:32:28.183Z,96050.69
2022-11-01T15:37:33.210Z,96063.28
2022-11-01T15:42:35.973Z,96061.63
2022-11-01T15:47:38.668Z,96063.13
2022-11-01T15:52:41.434Z,96070.25
2022-11-01T15:57:44.337Z,96075.66
2022-11-01T16:02:47.038Z,96071.63
2022-11-01T16:07:49.890Z,96073.41
2022-11-01T16:12:52.613Z,96081.09
2022-11-01T16:17:57.518Z,96084.97
2022-11-01T16:23:03.349Z,96091.03
2022-11-01T16:28:07.313Z,96091.94
2022-11-01T16:33:10.189Z,96093.47
2022-11-01T16:38:12.905Z,96108.53
2022-11-01T16:43:15.619Z,96105.31
2022-11-01T16:48:18.298Z,96117.03
2022-11-01T16:53:21.001Z,96123.88
2022-11-01T16:58:23.801Z,96134.56
2022-11-01T17:03:26.591Z,96135.13
2022-11-01T17:08:33.189Z,96136.91
2022-11-01T17:13:35.935Z,96151.53
2022-11-01T17:18:38.887Z,96156.50
2022-11-01T17:23:41.570Z,96161.75
2022-11-01T17:28:49.292Z,96164.53
2022-11-01T17:33:54.909Z,96171.22
2022-11-01T17:38:57.512Z,96173.28
2022-11-01T17:44:00.110Z,96170.00
2022-11-01T17:49:02.825Z,96174.97
2022-11-01T17:54:05.526Z,96169.63
2022-11-01T17:59:08.681Z,96182.13
2022-11-01T18:04:11.605Z,96177.25
2022-11-01T18:09:14.213Z,96178.59
2022-11-01T18:14:17.125Z,96191.91
2022-11-01T18:19:19.712Z,96183.19
2022-11-01T18:24:22.796Z,96189.16
2022-11-01T18:29:26.122Z,96197.53
2022-11-01T18:34:29.218Z,96197.63
2022-11-01T18:39:31.959Z,96201.53
2022-11-01T18:44:34.568Z,96215.06
2022-11-01T18:49:37.633Z,96218.06
2022-11-01T18:54:40.356Z,96214.03
2022-11-01T18:59:43.193Z,96213.25
2022-11-01T19:04:46.337Z,96212.69
2022-11-01T19:09:48.999Z,96213.47
2022-11-01T19:14:51.827Z,96221.03
2022-11-01T19:19:54.491Z,96218.34
2022-11-01T19:24:57.141Z,96221.66
2022-11-01T19:30:01.889Z,96208.78
2022-11-01T19:35:04.529Z,96202.09
2022-11-01T19:40:07.255Z,96191.66
2022-11-01T19:45:10.071Z,96191.91
2022-11-01T19:50:13.001Z,96194.06
2022-11-01T19:55:15.975Z,96209.19
2022-11-01T20:00:19.248Z,96211.91
2022-11-01T20:05:23.117Z,96219.16
2022-11-01T20:10:26.470Z,96219.69
2022-11-01T20:15:29.906Z,96228.31
2022-11-01T20:20:34.847Z,96242.31
2022-11-01T20:25:38.709Z,96243.41
2022-11-01T20:30:42.170Z,96240.41
2022-11-01T20:35:45.021Z,96245.50
2022-11-01T20:40:48.096Z,96248.75
2022-11-01T20:45:51.035Z,96248.44
2022-11-01T20:50:54.311Z,96258.41
2022-11-01T20:55:57.138Z,96255.97
2022-11-01T21:01:00.125Z,96259.72
2022-11-01T21:06:03.116Z,96256.75
2022-11-01T21:11:05.932Z,96256.50
2022-11-01T21:16:08.777Z,96259.16
2022-11-01T21:21:11.571Z,96263.44
2022-11-01T21:26:15.192Z,96266.34
2022-11-01T21:31:18.041Z,96265.25
2022-11-01T21:36:21.062Z,96259.31
2022-11-01T21:41:23.893Z,96258.22
2022-11-01T21:46:26.558Z,96259.75
2022-11-01T21:51:29.578Z,96254.94
2022-11-01T21:56:32.336Z,96260.84
2022-11-01T22:01:35.171Z,96258.69
2022-11-01T22:06:38.040Z,96255.44
2022-11-01T22:11:40.712Z,96251.06
2022-11-01T22:16:43.475Z,96249.44
2022-11-01T22:26:53.894Z,96237.06
2022-11-01T22:31:56.916Z,96245.56
2022-11-01T22:36:59.607Z,96245.53
2022-11-01T22:42:04.794Z,96252.53
2022-11-01T22:47:07.513Z,96250.88
2022-11-01T22:52:11.032Z,96256.22
2022-11-01T22:57:13.662Z,96249.22
2022-11-01T23:02:16.486Z,96248.72
2022-11-01T23:07:19.253Z,96250.00
2022-11-01T23:12:55.041Z,96250.25
2022-11-01T23:17:58.173Z,96248.63
2022-11-01T23:23:01.638Z,96257.66
2022-11-01T23:28:04.529Z,96266.56
2022-11-01T23:33:08.065Z,96258.25
2022-11-01T23:38:10.816Z,96258.53
2022-11-01T23:43:13.573Z,96266.56
2022-11-01T23:48:16.197Z,96268.41
2022-11-01T23:53:18.895Z,96265.75
2022-11-01T23:58:21.659Z,96260.88
